Kingston Norman Rogers Airport
CYGK : rendu visible

Aérodrome :











RETROUVEZ-NOUS SUR...

 
LOGIN :

S'inscrire | Disclaimer

   EN    FR    IT 

 









Légende :    VFR   VFR Marginal   IFR   IFR Intensif   IFR Très Intensif
Visi : 
Plafond : 
>= 8 km
>= 3000ft
5 à 8 km
1000 à 3000 ft
1500m à 5 km
500 à 1000 ft
800 à 1500m
200 à 500 ft
< 800m
< 200 ft
Symboles :   Orages  Brouillard  Fortes neiges  Fortes précipitations  Vent > 20 kt






- Altitude de l'aérodrome : 305 ft
- Code IATA : YGK


CYGK - Kingston Norman Rogers

DERNIER METAR :
  • 222000Z 23015G20KT 15SM FEW030 BKN250 01/M04 A3011 RMK CF1CI2 CF TR SLP202

METARs EXPIRÉS :
  • 221900Z 23014KT 15SM FEW030 SCT250 01/M04 A3012 RMK CF1CI3 CF TR SLP205
  • 221800Z 23012G19KT 15SM FEW030 SCT250 01/M04 A3013 RMK CU1CI1 CU TR SLP210

TAF TAF CYGK
Valide du 22 à 20h jusqu'au 23 à 04h UTC


221938Z 2220/2304 24010G20KT P6SM FEW030
BECMG 2300/2302 24008KT RMK NXT FCST BY 230200Z



MET'MAP, la Météo Aéronautique d'un coup d'oeil ! - Copyright ORBIFLY Décembre 2007 - Disclaimer

ORBIFLY MET'MAP TEAM :

Programmation & Développement : Alexandra Zaïnal
Sur une idée originale de : Baudouin d'Aumeries
Assistance à la programmation : Marc-Olivier Méhu
Soutien technique & logistique : Manuel Goepfert

Contact : metmap@orbifly.com




SOURCES & CREDITS :

   NOAA       Earth
Advisory